Latest Weather Observations for Borroloola

IDD60801

Issued at 6:31 pm CST Sunday 31 July 2016 (issued every 30 minutes, with the page automatically refreshed every 10 minutes)

About weather observations | Map of weather stations | Latest weather observations for NT | Other Formats
Station Details ID: 014723 Name: BORROLOOLA AIRPORT Lat: -16.08 Lon: 136.30 Height: 16.1 m
Data from the previous 72 hours. | See also: Recent months at Borroloola
Date/Time
CST
Temp
°C
App
Temp
°C
Dew
Point
°C
Rel
Hum
%
Delta-T
°C
Wind Press
QNH
hPa
Press
MSL
hPa
Rain since
9am
mm
Dir  Spd
km/h
Gust
km/h
Spd
kts
Gust
kts
31/06:30pm 25.7 21.7 3.0 23 11.1 NE 13 19 7 10 1011.9 1011.8 0.0
31/06:00pm 27.1 23.2 3.6 22 11.7 NE 13 17 7 9 1011.8 1011.7 0.0
31/05:30pm 29.0 25.3 4.5 21 12.6 NE 13 20 7 11 1011.5 1011.4 0.0
31/05:00pm 30.1 25.3 4.7 20 13.2 NE 19 26 10 14 1011.3 1011.2 0.0
31/04:30pm 32.0 30.6 5.5 19 14.1 SSW 2 11 1 6 1011.1 1011.0 0.0
31/04:00pm 31.7 28.5 5.3 19 13.9 ESE 11 17 6 9 1011.1 1011.0 0.0
31/03:30pm 32.2 29.7 6.4 20 13.9 NNE 9 17 5 9 1011.3 1011.2 0.0
31/03:00pm 31.5 29.4 5.8 20 13.7 WNW 6 11 3 6 1011.6 1011.5 0.0
31/02:30pm 31.4 28.1 6.5 21 13.4 E 13 19 7 10 1011.8 1011.7 0.0
31/02:00pm 30.9 28.8 6.7 22 13.0 SSW 7 13 4 7 1012.1 1012.0 0.0
31/01:30pm 30.8 28.3 6.6 22 13.0 WSW 9 17 5 9 1012.6 1012.5 0.0
31/01:00pm 29.9 26.9 5.9 22 12.7 SW 11 19 6 10 1013.1 1013.0 0.0
31/12:30pm 30.6 28.4 7.7 24 12.5 SSE 9 17 5 9 1013.6 1013.5 0.0
31/12:00pm 29.7 27.8 7.6 25 12.0 E 7 15 4 8 1014.2 1014.1 0.0
31/11:30am 28.6 26.5 8.3 28 11.1 SSE 9 17 5 9 1014.8 1014.7 0.0
31/11:00am 28.1 25.9 9.4 31 10.4 SSE 11 17 6 9 1015.2 1015.1 0.0
31/10:30am 27.2 24.8 10.0 34 9.6 ESE 13 19 7 10 1015.4 1015.3 0.0
31/10:00am 25.7 23.6 11.1 40 8.2 ESE 13 19 7 10 1015.7 1015.6 0.0
31/09:30am 24.3 22.2 12.3 47 6.9 SE 15 20 8 11 1015.9 1015.8 0.0
31/09:00am 22.1 20.4 12.6 55 5.4 SE 13 20 7 11 1016.0 1015.9 0.0
31/08:30am 19.2 17.8 12.2 64 3.9 S 11 13 6 7 1015.7 1015.6 0.0
31/08:00am 15.5 14.4 10.1 70 2.8 SSW 6 7 3 4 1015.4 1015.3 0.0
31/07:30am 11.4 10.6 6.3 71 2.4 CALM 0 0 0 0 1015.1 1015.0 0.0
31/07:00am 8.9 7.5 3.7 70 2.3 CALM 0 0 0 0 1014.7 1014.6 0.0
31/06:30am 9.0 7.6 3.6 69 2.3 CALM 0 0 0 0 1014.5 1014.4 0.0
31/06:00am 9.7 8.4 4.1 68 2.5 CALM 0 0 0 0 1014.3 1014.2 0.0
31/05:30am 9.9 8.6 4.1 67 2.6 CALM 0 0 0 0 1014.0 1013.9 0.0
31/05:00am 10.4 9.1 4.3 66 2.7 CALM 0 0 0 0 1013.9 1013.8 0.0
31/04:30am 10.8 9.6 4.7 66 2.8 CALM 0 0 0 0 1013.7 1013.6 0.0
31/04:00am 10.9 9.7 4.4 64 2.9 CALM 0 0 0 0 1013.7 1013.6 0.0
31/03:30am 11.2 9.6 4.4 63 3.1 SSE 2 6 1 3 1013.9 1013.8 0.0
31/03:00am 11.3 10.0 4.3 62 3.1 CALM 0 0 0 0 1013.8 1013.7 0.0
31/02:30am 11.7 10.5 4.4 61 3.3 CALM 0 0 0 0 1013.8 1013.7 0.0
31/02:00am 12.7 11.6 5.1 60 3.5 CALM 0 0 0 0 1014.1 1014.0 0.0
31/01:30am 13.1 12.0 5.3 59 3.6 CALM 0 0 0 0 1014.5 1014.4 0.0
31/01:00am 13.7 12.6 5.3 57 3.9 CALM 0 0 0 0 1014.7 1014.6 0.0
31/12:30am 14.8 13.9 5.9 55 4.3 CALM 0 0 0 0 1014.8 1014.7 0.0
31/12:00am 15.4 14.5 5.9 53 4.6 CALM 0 0 0 0 1015.0 1014.9 0.0
 
Date/Time
CST
Temp
°C
App
Temp
°C
Dew
Point
°C
Rel
Hum
%
Delta-T
°C
Wind Press
QNH
hPa
Press
MSL
hPa
Rain since
9am
mm
Dir  Spd
km/h
Gust
km/h
Spd
kts
Gust
kts
30/11:30pm 16.0 13.7 5.9 51 4.9 SSW 7 13 4 7 1015.0 1014.9 0.0
30/11:00pm 18.3 17.7 7.4 49 5.5 CALM 0 0 0 0 1014.7 1014.6 0.0
30/10:30pm 18.9 17.1 7.0 46 6.0 N 6 7 3 4 1014.5 1014.4 0.0
30/10:00pm 19.3 17.3 6.4 43 6.4 NNE 6 9 3 5 1014.4 1014.3 0.0
30/09:30pm 19.7 17.0 5.4 39 7.0 NNE 9 11 5 6 1014.3 1014.2 0.0
30/09:00pm 20.4 17.1 4.8 36 7.6 NNE 11 13 6 7 1014.1 1014.0 0.0
30/08:30pm 21.5 17.8 4.6 33 8.3 NNE 13 17 7 9 1013.8 1013.7 0.0
30/08:00pm 21.8 18.4 3.9 31 8.7 NNE 11 15 6 8 1013.4 1013.3 0.0
30/07:30pm 22.7 19.2 3.3 28 9.3 NNE 11 13 6 7 1013.1 1013.0 0.0
30/07:08pm 25.8 22.2 4.9 26 10.6 NNE 13 17 7 9 1012.8 1012.7 0.0
30/07:04pm 30.8 28.5 9.1 26 12.1 NNE 11 17 6 9 1012.7 1012.6 0.0
30/07:00pm 23.7 19.6 2.5 25 10.1 NNE 13 17 7 9 1012.7 1012.6 0.0
30/06:30pm 25.9 20.9 1.2 20 11.7 NNE 17 22 9 12 1012.4 1012.3 0.0
30/06:00pm 28.4 24.7 0.2 16 13.4 S 9 13 5 7 1012.0 1011.9 0.0
30/05:30pm 30.0 26.2 1.5 16 14.0 SSE 11 17 6 9 1011.9 1011.8 0.0
30/05:00pm 31.0 26.9 2.3 16 14.4 ESE 13 17 7 9 1011.9 1011.8 0.0
30/04:30pm 31.4 27.5 3.4 17 14.3 SSE 13 19 7 10 1011.9 1011.8 0.0
30/04:00pm 31.5 27.8 4.3 18 14.1 SE 13 19 7 10 1012.2 1012.1 0.0
30/03:30pm 31.2 28.9 4.9 19 13.8 ESE 6 13 3 7 1012.3 1012.2 0.0
30/03:00pm 31.4 29.3 5.8 20 13.6 WNW 6 11 3 6 1012.5 1012.4 0.0
30/02:30pm 31.4 28.5 6.5 21 13.4 E 11 20 6 11 1012.9 1012.8 0.0
30/02:00pm 30.6 26.9 6.5 22 12.9 SE 15 22 8 12 1013.5 1013.4 0.0
30/01:30pm 30.7 28.0 7.2 23 12.7 E 11 19 6 10 1014.0 1013.9 0.0
30/01:00pm 29.8 26.3 7.1 24 12.2 ESE 15 22 8 12 1014.7 1014.6 0.0
30/12:30pm 28.7 25.2 7.3 26 11.5 SSE 15 28 8 15 1015.2 1015.1 0.0
30/12:00pm 28.5 24.9 8.2 28 11.0 SE 17 26 9 14 1015.7 1015.6 0.0
30/11:30am 27.9 24.4 8.7 30 10.5 SSE 17 30 9 16 1016.2 1016.1 0.0
30/11:00am 26.9 23.2 9.3 33 9.7 SE 19 28 10 15 1016.6 1016.5 0.0
30/10:30am 25.4 21.5 9.3 36 8.8 SE 20 28 11 15 1016.8 1016.7 0.0
30/10:00am 24.6 21.1 10.8 42 7.7 ESE 20 30 11 16 1016.9 1016.8 0.0
30/09:30am 23.6 20.5 12.3 49 6.4 SSE 20 28 11 15 1016.9 1016.8 0.0
30/09:00am 21.4 18.6 12.5 57 5.0 SSE 19 24 10 13 1016.9 1016.8 0.0
30/08:30am 18.6 16.9 12.4 67 3.4 SSE 13 19 7 10 1016.7 1016.6 0.0
30/08:00am 13.7 13.5 9.0 73 2.4 CALM 0 0 0 0 1016.5 1016.4 0.0
30/07:30am 9.7 8.6 5.3 74 2.0 CALM 0 0 0 0 1016.1 1016.0 0.0
30/07:00am 8.1 6.7 3.6 73 1.9 CALM 0 0 0 0 1015.8 1015.7 0.0
30/06:30am 8.1 6.7 3.4 72 2.0 CALM 0 0 0 0 1015.6 1015.5 0.0
30/06:00am 7.6 6.0 2.7 71 2.0 CALM 0 0 0 0 1015.3 1015.2 0.0
30/05:30am 8.2 6.8 3.3 71 2.1 CALM 0 0 0 0 1015.3 1015.2 0.0
30/05:00am 8.7 7.3 3.5 70 2.2 CALM 0 0 0 0 1015.3 1015.2 0.0
30/04:30am 8.8 7.4 3.4 69 2.3 CALM 0 0 0 0 1015.3 1015.2 0.0
30/04:00am 9.1 7.7 3.5 68 2.4 CALM 0 0 0 0 1015.3 1015.2 0.0
30/03:30am 9.8 8.5 4.0 67 2.6 CALM 0 0 0 0 1015.2 1015.1 0.0
30/03:00am 9.5 6.9 3.3 65 2.7 SSW 6 7 3 4 1015.5 1015.4 0.0
30/02:30am 9.7 8.2 3.2 64 2.8 CALM 0 0 0 0 1015.4 1015.3 0.0
30/02:00am 11.2 10.0 4.4 63 3.1 CALM 0 0 0 0 1015.3 1015.2 0.0
30/01:30am 10.4 8.9 3.0 60 3.2 CALM 0 0 0 0 1015.4 1015.3 0.0
30/01:00am 11.9 10.6 4.2 59 3.5 CALM 0 0 0 0 1015.8 1015.7 0.0
30/12:30am 12.7 11.5 4.4 57 3.8 CALM 0 0 0 0 1015.9 1015.8 0.0
30/12:00am 13.4 12.2 4.8 56 4.0 CALM 0 0 0 0 1016.0 1015.9 0.0
 
Date/Time
CST
Temp
°C
App
Temp
°C
Dew
Point
°C
Rel
Hum
%
Delta-T
°C
Wind Press
QNH
hPa
Press
MSL
hPa
Rain since
9am
mm
Dir  Spd
km/h
Gust
km/h
Spd
kts
Gust
kts
29/11:30pm 14.0 12.8 4.6 53 4.3 CALM 0 0 0 0 1016.2 1016.1 0.0
29/11:00pm 14.8 13.6 4.8 51 4.7 CALM 0 0 0 0 1016.3 1016.2 0.0
29/10:30pm 15.8 14.7 5.1 49 5.1 CALM 0 0 0 0 1016.3 1016.2 0.0
29/10:00pm 17.1 16.1 5.7 47 5.5 CALM 0 0 0 0 1016.0 1015.9 0.0
29/09:30pm 18.7 17.9 6.5 45 6.1 CALM 0 6 0 3 1015.7 1015.6 0.0
29/09:00pm 19.8 17.8 6.9 43 6.5 NNE 7 9 4 5 1015.5 1015.4 0.0
29/08:30pm 20.7 19.9 6.6 40 7.1 CALM 0 0 0 0 1015.3 1015.2 0.0
29/08:00pm 21.9 19.9 7.0 38 7.6 NE 7 17 4 9 1014.9 1014.8 0.0
29/07:30pm 22.6 21.8 6.4 35 8.3 CALM 0 0 0 0 1014.5 1014.4 0.0
29/07:00pm 23.3 20.2 5.7 32 8.9 NE 11 13 6 7 1014.1 1014.0 0.0
29/06:30pm 24.8 22.1 5.6 29 9.8 NNE 9 13 5 7 1013.9 1013.8 0.0
29/06:00pm 26.9 23.2 6.3 27 10.8 N 15 19 8 10 1013.5 1013.4 0.0
29/05:30pm 28.9 25.7 5.1 22 12.3 NNE 11 17 6 9 1013.3 1013.2 0.0
29/05:00pm 30.5 27.1 5.7 21 13.1 SSE 13 17 7 9 1013.2 1013.1 0.0
29/04:30pm 31.0 28.0 6.1 21 13.3 ESE 11 20 6 11 1013.2 1013.1 0.0
29/04:00pm 31.2 28.3 6.3 21 13.3 SE 11 19 6 10 1013.2 1013.1 0.0
29/03:30pm 32.0 30.1 7.6 22 13.4 WSW 7 19 4 10 1013.2 1013.1 0.0
29/03:00pm 31.0 27.4 6.8 22 13.0 ESE 15 24 8 13 1013.4 1013.3 0.0
29/02:30pm 31.1 27.3 7.5 23 12.9 SSE 17 26 9 14 1013.7 1013.6 0.0
29/02:00pm 30.9 26.6 8.0 24 12.6 S 20 28 11 15 1014.1 1014.0 0.0
29/01:30pm 30.2 26.4 7.4 24 12.4 SE 17 28 9 15 1014.6 1014.5 0.0
29/01:00pm 29.5 25.1 7.4 25 11.9 SE 20 32 11 17 1015.2 1015.1 0.0
29/12:30pm 29.5 26.2 8.0 26 11.7 SSE 15 26 8 14 1015.8 1015.7 0.0
29/12:00pm 28.2 24.0 7.4 27 11.1 SE 19 28 10 15 1016.5 1016.4 0.0
29/11:30am 27.5 23.3 7.4 28 10.7 SE 19 28 10 15 1017.1 1017.0 0.0
29/11:00am 27.0 22.9 8.0 30 10.2 SE 19 32 10 17 1017.6 1017.6 0.0
29/10:30am 25.9 21.3 8.0 32 9.6 SE 22 28 12 15 1017.7 1017.7 0.0
29/10:00am 24.4 19.3 7.5 34 8.9 SE 24 32 13 17 1017.9 1017.9 0.0
29/09:30am 23.0 17.6 7.9 38 7.9 SE 26 33 14 18 1017.9 1017.9 0.0
29/09:00am 21.7 17.7 8.9 44 6.8 SE 20 28 11 15 1017.9 1017.9 0.0
29/08:30am 19.6 16.6 9.2 51 5.5 SSE 15 20 8 11 1017.8 1017.8 0.0
29/08:00am 17.4 15.6 9.3 59 4.2 SSW 9 13 5 7 1017.6 1017.6 0.0
29/07:30am 12.4 11.4 5.6 63 3.2 CALM 0 0 0 0 1017.4 1017.4 0.0
29/07:00am 10.1 8.7 3.4 63 2.9 CALM 0 0 0 0 1017.3 1017.2 0.0
29/06:30am 10.4 9.1 3.9 64 2.9 CALM 0 0 0 0 1017.0 1016.9 0.0
29/06:00am 10.6 9.3 4.1 64 2.9 CALM 0 0 0 0 1016.9 1016.8 0.0
29/05:30am 9.7 8.2 3.2 64 2.8 CALM 0 0 0 0 1016.9 1016.8 0.0
29/05:00am 10.0 8.6 3.3 63 2.9 CALM 0 0 0 0 1016.9 1016.8 0.0
29/04:30am 10.1 8.7 3.4 63 2.9 CALM 0 0 0 0 1016.7 1016.6 0.0
29/04:00am 10.4 8.9 3.2 61 3.1 CALM 0 0 0 0 1016.7 1016.6 0.0
29/03:30am 11.8 10.5 4.3 60 3.4 CALM 0 0 0 0 1016.7 1016.6 0.0
29/03:00am 12.0 10.8 4.5 60 3.4 CALM 0 0 0 0 1016.7 1016.6 0.0
29/02:30am 11.5 10.1 3.8 59 3.4 CALM 0 0 0 0 1016.7 1016.6 0.0
29/02:00am 12.6 11.4 4.6 58 3.7 CALM 0 0 0 0 1016.9 1016.8 0.0
29/01:30am 13.1 11.9 4.5 56 3.9 CALM 0 0 0 0 1017.0 1016.9 0.0
29/01:00am 13.4 12.1 4.3 54 4.2 CALM 0 0 0 0 1017.2 1017.1 0.0
29/12:30am 13.7 12.4 4.0 52 4.4 CALM 0 0 0 0 1017.2 1017.1 0.0
29/12:00am 14.7 13.5 4.7 51 4.7 CALM 0 0 0 0 1017.1 1017.0 0.0
 
Date/Time
CST
Temp
°C
App
Temp
°C
Dew
Point
°C
Rel
Hum
%
Delta-T
°C
Wind Press
QNH
hPa
Press
MSL
hPa
Rain since
9am
mm
Dir  Spd
km/h
Gust
km/h
Spd
kts
Gust
kts
28/11:30pm 15.5 14.3 4.8 49 5.0 CALM 0 0 0 0 1017.1 1017.0 0.0
28/11:00pm 16.3 15.2 5.0 47 5.4 CALM 0 0 0 0 1017.2 1017.1 0.0
28/10:30pm 17.0 15.9 5.0 45 5.7 CALM 0 0 0 0 1017.2 1017.1 0.0
28/10:00pm 19.0 18.1 6.2 43 6.3 CALM 0 6 0 3 1017.1 1017.0 0.0
28/09:30pm 20.5 18.1 6.8 41 6.9 NNE 9 11 5 6 1016.9 1016.8 0.0
28/09:00pm 20.8 18.1 5.6 37 7.5 NNE 9 13 5 7 1016.7 1016.6 0.0
28/08:30pm 20.4 19.1 4.0 34 7.9 CALM 0 0 0 0 1016.4 1016.3 0.0
28/08:00pm 21.8 20.5 3.9 31 8.7 CALM 0 0 0 0 1016.2 1016.1 0.0
28/07:30pm 22.9 21.6 3.9 29 9.3 CALM 0 0 0 0 1015.8 1015.7 0.0
28/07:00pm 24.2 21.7 4.6 28 9.8 SE 7 9 4 5 1015.5 1015.4 0.0

Other Formats:

Comma delimited format used in spreadsheet applications
http://www.bom.gov.au/fwo/IDD60801/IDD60801.94152.axf

JavaScript Object Notation format (JSON) in row-major order
http://www.bom.gov.au/fwo/IDD60801/IDD60801.94152.json